Davisport, Kentucky
Current Conditions -  °F | °C
As of 11:15 AM on Sunday 25 Jan 2015 (Local Time) from KSJS Reporting Station
Clear Clear  
Wind Chill: 38°   Ceiling: Unl
Heat Index: 42°   Visibility: 10mi
Dew Point: 32°   Wind: 7mph
Humidity: 67%   Direction: 180°S
Pressure: 29.8"   Gusts: NA
Location:  37.8776°N, 82.5976°W
Report Text: KSJS 251615Z AUTO 18006KT 10SM CLR 06/00 A2980 RMK AO2 T00570001
Loading
Personal Weather Stations






























Interactive Weather Map New forecast layout! Learn more

10-Day Weather Forecast

Advertisements
Track Severe Weather on mobile